Time;durP1;ratioP1;P1;durP2;ratioP2;P2;SDS_P1;SDS_P2;PMS_P1;PMS_P2;Temp;Humidity;BMP_temperature;BMP_pressure;BME280_temperature;BME280_humidity;BME280_pressure;Samples;Min_cycle;Max_cycle;Signal;HPM_P1;HPM_P2
2021/12/16 00:06:38;;;;;;;57.03;31.77;;;8.40;99.90;;;;;;5093436;28;20235;-54
2021/12/16 00:09:00;;;;;;;60.50;32.73;;;8.40;99.90;;;;;;5092904;28;20644;-54
2021/12/16 00:31:26;;;;;;;58.93;32.37;;;8.40;99.90;;;;;;5085394;28;20240;-54
2021/12/16 00:34:03;;;;;;;62.03;33.33;;;8.40;99.90;;;;;;5092425;28;20256;-55
2021/12/16 00:36:35;;;;;;;65.97;34.07;;;8.40;99.90;;;;;;5080783;28;20256;-54
2021/12/16 00:39:07;;;;;;;55.83;30.90;;;8.40;99.90;;;;;;5092335;28;20855;-53
2021/12/16 00:41:36;;;;;;;64.80;34.03;;;8.50;99.90;;;;;;5092333;28;20342;-53
2021/12/16 00:44:12;;;;;;;61.13;32.57;;;8.50;99.90;;;;;;5092284;28;20303;-55
2021/12/16 00:47:00;;;;;;;58.40;32.10;;;8.40;99.90;;;;;;5092685;28;20267;-53
2021/12/16 00:49:40;;;;;;;61.83;34.37;;;8.40;99.90;;;;;;5092004;28;20249;-54
2021/12/16 00:55:24;;;;;;;84.50;36.83;;;8.40;99.90;;;;;;5091265;28;20253;-53
2021/12/16 00:57:52;;;;;;;65.70;34.80;;;8.40;99.90;;;;;;5092619;28;20268;-53
2021/12/16 01:00:24;;;;;;;64.40;34.70;;;8.40;99.90;;;;;;5075847;28;20230;-54
2021/12/16 01:03:07;;;;;;;57.40;33.57;;;8.40;99.90;;;;;;5071807;28;20242;-55
2021/12/16 01:08:52;;;;;;;65.80;35.60;;;8.40;99.90;;;;;;5057187;28;20624;-54
2021/12/16 01:34:00;;;;;;;104.27;40.10;;;8.40;99.90;;;;;;5072521;28;20259;-54
2021/12/16 01:36:41;;;;;;;73.90;37.63;;;8.40;99.90;;;;;;5074696;28;20240;-55
2021/12/16 01:42:30;;;;;;;80.90;37.37;;;8.40;99.90;;;;;;5073241;28;20252;-55
2021/12/16 01:47:56;;;;;;;64.83;34.47;;;8.50;99.90;;;;;;5091351;28;20239;-55
2021/12/16 01:50:30;;;;;;;73.17;35.83;;;8.50;99.90;;;;;;5076568;28;20248;-55
2021/12/16 01:53:15;;;;;;;89.80;37.97;;;8.50;99.90;;;;;;5079795;28;20783;-54
2021/12/16 01:55:53;;;;;;;69.43;33.47;;;8.50;99.90;;;;;;5091387;28;20287;-54
2021/12/16 01:58:24;;;;;;;70.70;35.03;;;8.50;99.90;;;;;;5091109;28;20237;-54
2021/12/16 02:00:59;;;;;;;109.43;38.77;;;8.50;99.90;;;;;;5071270;28;20242;-55
2021/12/16 02:03:40;;;;;;;80.90;37.03;;;8.40;99.90;;;;;;5071046;28;20235;-55
2021/12/16 02:06:26;;;;;;;75.67;36.73;;;8.40;99.90;;;;;;5071244;28;20205;-54
2021/12/16 02:08:55;;;;;;;103.90;41.13;;;8.40;99.90;;;;;;5071161;28;20284;-54
2021/12/16 02:11:45;;;;;;;106.13;39.53;;;8.40;99.90;;;;;;5073821;28;20306;-54
2021/12/16 02:28:27;;;;;;;66.93;34.67;;;8.30;99.90;;;;;;5091022;28;20280;-55
2021/12/16 02:36:28;;;;;;;126.53;40.50;;;8.30;99.90;;;;;;5076547;28;20235;-54
2021/12/16 02:39:01;;;;;;;97.20;36.57;;;8.20;99.90;;;;;;5091162;28;20315;-54
2021/12/16 02:41:30;;;;;;;139.43;41.57;;;8.30;99.90;;;;;;5090563;28;20788;-54
2021/12/16 02:44:16;;;;;;;82.97;36.93;;;8.30;99.90;;;;;;5091019;28;20297;-55
2021/12/16 02:49:47;;;;;;;72.97;34.80;;;8.30;99.90;;;;;;5090659;28;20267;-54
2021/12/16 02:52:17;;;;;;;159.33;44.13;;;8.30;99.90;;;;;;5090750;28;20658;-54
2021/12/16 02:54:47;;;;;;;65.07;33.90;;;8.30;99.90;;;;;;5094746;28;20290;-54
2021/12/16 02:57:16;;;;;;;64.77;34.10;;;8.30;99.90;;;;;;5094584;28;20232;-51
2021/12/16 02:59:46;;;;;;;97.57;37.33;;;8.30;99.90;;;;;;5092147;28;20280;-52
2021/12/16 03:02:17;;;;;;;71.43;35.40;;;8.30;99.90;;;;;;5093883;28;20687;-53
2021/12/16 03:04:49;;;;;;;114.73;37.10;;;8.40;99.90;;;;;;5094903;28;20243;-51
2021/12/16 03:07:19;;;;;;;98.97;37.03;;;8.30;99.90;;;;;;5094417;28;20223;-53
2021/12/16 03:12:56;;;;;;;100.10;35.93;;;8.30;99.90;;;;;;5094120;28;20663;-53
2021/12/16 03:15:38;;;;;;;130.63;39.43;;;8.30;99.90;;;;;;5094182;28;20239;-52
2021/12/16 03:18:14;;;;;;;117.53;37.57;;;8.30;99.90;;;;;;5092890;28;20662;-52
2021/12/16 03:20:47;;;;;;;129.17;39.70;;;8.30;99.90;;;;;;5093812;28;20292;-52
2021/12/16 03:23:39;;;;;;;274.67;49.43;;;8.30;99.90;;;;;;5093668;28;20262;-54
2021/12/16 03:31:52;;;;;;;164.23;39.07;;;8.40;99.90;;;;;;5093494;28;20327;-55
2021/12/16 03:34:31;;;;;;;216.93;42.00;;;8.30;99.90;;;;;;5093748;28;20638;-51
2021/12/16 03:37:14;;;;;;;130.33;37.83;;;8.20;99.90;;;;;;5093968;28;20272;-52
2021/12/16 03:39:46;;;;;;;191.43;40.90;;;8.20;99.90;;;;;;5093652;28;20261;-54
2021/12/16 03:42:19;;;;;;;278.03;47.00;;;8.30;99.90;;;;;;5093807;28;20270;-54
2021/12/16 03:44:56;;;;;;;170.53;40.67;;;8.30;99.90;;;;;;5084876;28;20259;-55
2021/12/16 03:47:30;;;;;;;111.43;37.30;;;8.30;99.90;;;;;;5098302;28;20243;-55
2021/12/16 03:49:59;;;;;;;190.10;38.97;;;8.30;99.90;;;;;;5073171;28;20260;-53
2021/12/16 03:52:27;;;;;;;199.17;41.57;;;8.40;99.90;;;;;;5077350;28;20252;-54
2021/12/16 03:54:58;;;;;;;91.63;34.40;;;8.40;99.90;;;;;;5093197;28;20881;-54
2021/12/16 03:57:30;;;;;;;136.30;38.07;;;8.30;99.90;;;;;;5073101;28;20258;-55
2021/12/16 03:59:59;;;;;;;96.40;34.63;;;8.30;99.90;;;;;;5084957;28;20554;-55
2021/12/16 04:02:30;;;;;;;99.63;33.93;;;8.30;99.90;;;;;;5093093;28;20276;-53
2021/12/16 04:05:00;;;;;;;93.00;34.37;;;8.30;99.90;;;;;;5093280;28;20236;-55
2021/12/16 04:07:33;;;;;;;81.83;32.73;;;8.20;99.90;;;;;;5093052;28;20203;-55
2021/12/16 04:10:02;;;;;;;65.60;32.43;;;8.30;99.90;;;;;;5093446;28;20616;-54
2021/12/16 04:12:31;;;;;;;72.33;32.27;;;8.30;99.90;;;;;;5092518;28;20796;-53
2021/12/16 04:15:01;;;;;;;88.23;32.50;;;8.30;99.90;;;;;;5092849;28;20239;-53
2021/12/16 04:17:32;;;;;;;79.47;31.90;;;8.30;99.90;;;;;;5091569;28;20685;-54
2021/12/16 04:20:01;;;;;;;119.30;35.67;;;8.30;99.90;;;;;;5092963;28;20208;-54
2021/12/16 04:22:35;;;;;;;115.33;35.57;;;8.30;99.90;;;;;;5081306;28;20736;-54
2021/12/16 04:25:08;;;;;;;88.93;33.20;;;8.30;99.90;;;;;;5072696;28;20247;-55
2021/12/16 04:27:38;;;;;;;189.07;41.80;;;8.30;99.90;;;;;;5081410;28;20719;-55
2021/12/16 04:30:08;;;;;;;170.77;38.60;;;8.30;99.90;;;;;;5093048;28;20292;-55
2021/12/16 04:32:37;;;;;;;247.57;42.17;;;8.30;99.90;;;;;;5092348;28;20272;-55
2021/12/16 04:35:06;;;;;;;160.37;38.03;;;8.20;99.90;;;;;;5092425;28;20699;-54
2021/12/16 04:37:34;;;;;;;130.73;36.53;;;8.20;99.90;;;;;;5092522;28;20236;-55
2021/12/16 04:40:04;;;;;;;96.90;36.50;;;8.20;99.90;;;;;;5092773;28;20205;-54
2021/12/16 04:42:32;;;;;;;80.33;33.23;;;8.20;99.90;;;;;;5092440;28;20278;-54
2021/12/16 04:45:01;;;;;;;167.37;36.90;;;8.20;99.90;;;;;;5092433;28;20243;-54
2021/12/16 04:47:30;;;;;;;155.53;38.83;;;8.20;99.90;;;;;;5092115;28;20243;-55
2021/12/16 04:49:58;;;;;;;337.87;47.10;;;8.30;99.90;;;;;;5092187;28;20957;-53
2021/12/16 04:52:27;;;;;;;99.47;35.43;;;8.30;99.90;;;;;;5091513;28;20323;-54
2021/12/16 04:54:55;;;;;;;92.60;34.07;;;8.30;99.90;;;;;;5092048;28;20243;-55
2021/12/16 04:57:23;;;;;;;434.43;52.17;;;8.20;99.90;;;;;;5092229;28;20249;-54
2021/12/16 04:59:51;;;;;;;179.43;40.07;;;8.20;99.90;;;;;;5080591;28;20650;-54
2021/12/16 05:02:23;;;;;;;312.10;46.33;;;8.20;99.90;;;;;;5071451;28;20304;-53
2021/12/16 05:04:52;;;;;;;200.50;41.17;;;8.20;99.90;;;;;;5071686;28;20725;-54
2021/12/16 05:07:22;;;;;;;171.60;38.73;;;8.10;99.90;;;;;;5071705;28;20248;-55
2021/12/16 05:10:05;;;;;;;195.20;39.33;;;8.20;99.90;;;;;;5090905;28;20207;-55
2021/12/16 05:12:37;;;;;;;290.40;41.20;;;8.20;99.90;;;;;;5089176;28;20266;-54
2021/12/16 05:15:08;;;;;;;269.27;40.13;;;8.10;99.90;;;;;;5091570;28;20250;-55
2021/12/16 05:17:42;;;;;;;215.60;35.40;;;8.10;99.90;;;;;;5090096;28;20759;-54
2021/12/16 05:20:13;;;;;;;188.40;33.80;;;8.20;99.90;;;;;;5071723;28;20236;-53
2021/12/16 05:25:42;;;;;;;199.73;35.70;;;8.20;99.90;;;;;;5071173;28;20679;-54
2021/12/16 05:28:10;;;;;;;258.67;38.07;;;8.20;99.90;;;;;;5085712;28;20282;-53
2021/12/16 05:30:38;;;;;;;150.23;35.00;;;8.10;99.90;;;;;;5075151;28;20255;-54
2021/12/16 05:33:08;;;;;;;157.57;34.07;;;8.10;99.90;;;;;;5078375;28;20299;-55
2021/12/16 05:35:37;;;;;;;252.23;37.23;;;8.10;99.90;;;;;;5083326;28;20250;-53
2021/12/16 05:38:06;;;;;;;293.23;37.20;;;8.10;99.90;;;;;;5088577;28;20692;-54
2021/12/16 05:40:35;;;;;;;363.23;42.43;;;8.10;99.90;;;;;;5091590;28;20240;-51
2021/12/16 05:43:11;;;;;;;330.33;39.17;;;8.10;99.90;;;;;;5091349;28;20251;-54
2021/12/16 05:45:40;;;;;;;184.90;34.23;;;8.00;99.90;;;;;;5091348;28;20298;-54
2021/12/16 05:48:13;;;;;;;184.00;32.60;;;8.00;99.90;;;;;;5073001;28;20247;-54
2021/12/16 05:50:44;;;;;;;324.10;37.47;;;8.10;99.90;;;;;;5088051;28;20291;-54
2021/12/16 05:53:13;;;;;;;260.27;35.03;;;8.10;99.90;;;;;;5091023;28;20319;-54
2021/12/16 05:55:41;;;;;;;193.97;33.90;;;8.10;99.90;;;;;;5091298;28;20698;-54
2021/12/16 05:58:15;;;;;;;324.27;39.20;;;8.10;99.90;;;;;;5091054;28;20294;-55
2021/12/16 06:00:44;;;;;;;208.50;34.90;;;8.00;99.90;;;;;;5091372;28;20253;-54
2021/12/16 06:03:14;;;;;;;270.23;34.53;;;8.10;99.90;;;;;;5090113;28;20218;-54
2021/12/16 06:05:42;;;;;;;349.67;39.10;;;8.10;99.90;;;;;;5091429;28;20240;-55
2021/12/16 06:08:11;;;;;;;176.77;34.87;;;8.10;99.90;;;;;;5084995;28;20239;-54
2021/12/16 06:13:32;;;;;;;323.20;36.30;;;8.10;99.90;;;;;;5091180;28;20325;-54
2021/12/16 06:22:24;;;;;;;363.80;38.53;;;8.10;99.90;;;;;;5091477;28;20208;-55
2021/12/16 06:27:12;;;;;;;250.10;33.40;;;8.00;99.90;;;;;;5091520;28;20231;-54
2021/12/16 06:29:42;;;;;;;154.60;24.67;;;8.00;99.90;;;;;;5095165;28;20630;-52
2021/12/16 06:32:11;;;;;;;291.87;29.63;;;7.90;99.90;;;;;;5095342;28;20259;-54
2021/12/16 06:34:41;;;;;;;219.90;25.80;;;7.90;99.90;;;;;;5094398;28;20290;-53
2021/12/16 06:37:09;;;;;;;219.87;27.00;;;7.90;99.90;;;;;;5077834;28;20236;-55
2021/12/16 06:39:37;;;;;;;176.00;24.90;;;7.80;99.90;;;;;;5074079;28;20201;-53
2021/12/16 06:42:08;;;;;;;201.03;25.90;;;7.80;99.90;;;;;;5074718;28;20259;-55
2021/12/16 06:44:41;;;;;;;207.13;25.60;;;7.70;99.90;;;;;;5074397;28;20244;-53
2021/12/16 06:47:15;;;;;;;270.13;29.20;;;7.80;99.90;;;;;;5074320;28;20254;-55
2021/12/16 06:49:47;;;;;;;155.87;24.53;;;7.70;99.90;;;;;;5083510;28;20622;-54
2021/12/16 06:52:19;;;;;;;124.80;23.70;;;7.70;99.90;;;;;;5093980;28;20834;-55
2021/12/16 06:55:10;;;;;;;145.13;23.47;;;7.70;99.90;;;;;;5094486;28;20256;-53
2021/12/16 06:57:45;;;;;;;137.53;20.70;;;7.70;99.90;;;;;;5094675;28;20248;-54
2021/12/16 07:00:27;;;;;;;172.73;25.57;;;7.70;99.90;;;;;;5094351;28;20339;-54
2021/12/16 07:02:58;;;;;;;118.03;20.40;;;7.60;99.90;;;;;;5093793;28;20236;-55
2021/12/16 07:05:31;;;;;;;109.13;20.80;;;7.60;99.90;;;;;;5094478;28;20224;-52
2021/12/16 07:08:00;;;;;;;80.50;19.13;;;7.60;99.90;;;;;;5093986;28;20240;-54
2021/12/16 07:10:30;;;;;;;80.23;18.57;;;7.60;99.90;;;;;;5093860;28;20243;-54
2021/12/16 07:13:06;;;;;;;78.03;19.10;;;7.50;99.90;;;;;;5094075;28;20307;-55
2021/12/16 07:15:36;;;;;;;72.93;18.80;;;7.50;99.90;;;;;;5094218;28;20214;-58
2021/12/16 07:18:05;;;;;;;47.77;17.37;;;7.50;99.90;;;;;;5093812;28;20622;-55
2021/12/16 07:20:36;;;;;;;36.70;16.60;;;7.40;99.90;;;;;;5089904;28;20585;-54
2021/12/16 07:23:07;;;;;;;33.33;16.43;;;7.40;99.90;;;;;;5093414;28;20324;-55
2021/12/16 07:25:36;;;;;;;26.87;15.90;;;7.40;99.90;;;;;;5094025;28;20270;-54
2021/12/16 07:28:07;;;;;;;29.63;16.40;;;7.40;99.90;;;;;;5093838;28;20239;-54
2021/12/16 07:30:37;;;;;;;26.30;15.60;;;7.40;99.90;;;;;;5094104;28;20675;-53
2021/12/16 07:33:07;;;;;;;25.73;16.00;;;7.40;99.90;;;;;;5087647;28;20254;-54
2021/12/16 07:35:38;;;;;;;24.10;15.13;;;7.40;99.90;;;;;;5093702;28;20235;-54
2021/12/16 07:38:07;;;;;;;22.30;14.67;;;7.40;99.90;;;;;;5093790;28;20613;-56
2021/12/16 07:40:36;;;;;;;21.73;13.40;;;7.40;99.90;;;;;;5092517;28;20294;-55
2021/12/16 07:43:24;;;;;;;22.77;13.70;;;7.40;99.90;;;;;;5093824;28;20259;-54
2021/12/16 07:45:55;;;;;;;22.67;13.57;;;7.50;99.90;;;;;;5093161;28;20214;-55
2021/12/16 07:48:26;;;;;;;23.60;13.83;;;7.40;99.90;;;;;;5085975;28;20895;-55
2021/12/16 07:51:01;;;;;;;24.03;14.03;;;7.50;99.90;;;;;;5076081;28;20243;-54
2021/12/16 07:53:29;;;;;;;20.97;13.73;;;7.50;99.90;;;;;;5092804;28;20254;-55
2021/12/16 07:55:57;;;;;;;18.37;13.13;;;7.40;99.90;;;;;;5077685;28;20248;-56
2021/12/16 07:58:25;;;;;;;19.10;12.57;;;7.40;99.90;;;;;;5072950;28;20673;-55
2021/12/16 08:00:56;;;;;;;22.57;14.87;;;7.40;99.90;;;;;;5091973;28;20211;-54
2021/12/16 08:03:26;;;;;;;20.23;14.23;;;7.40;99.90;;;;;;5093218;28;20277;-53
2021/12/16 08:05:59;;;;;;;18.40;13.00;;;7.40;99.90;;;;;;5092702;28;20447;-53
2021/12/16 08:08:27;;;;;;;15.43;11.50;;;7.60;99.90;;;;;;5073901;28;20239;-54
2021/12/16 08:10:56;;;;;;;17.70;11.97;;;7.60;99.90;;;;;;5071915;28;20866;-54
2021/12/16 08:13:24;;;;;;;17.10;11.20;;;7.50;99.90;;;;;;5072778;28;20282;-58
2021/12/16 08:15:52;;;;;;;15.33;10.63;;;7.40;99.90;;;;;;5073181;28;20314;-59
2021/12/16 08:18:21;;;;;;;14.80;10.97;;;7.50;99.90;;;;;;5092260;28;20242;-54
2021/12/16 08:20:49;;;;;;;19.37;12.40;;;7.50;99.90;;;;;;5093026;28;20207;-53
2021/12/16 08:23:18;;;;;;;22.97;12.90;;;7.50;99.90;;;;;;5092685;28;20275;-54
2021/12/16 08:25:47;;;;;;;20.03;12.53;;;7.50;99.90;;;;;;5092940;28;20252;-54
2021/12/16 08:28:15;;;;;;;21.87;13.80;;;7.50;99.90;;;;;;5092541;28;20252;-54
2021/12/16 08:30:47;;;;;;;20.60;13.93;;;7.50;99.90;;;;;;5092607;28;20244;-53
2021/12/16 08:33:16;;;;;;;19.57;13.73;;;7.60;99.90;;;;;;5092329;28;20247;-54
2021/12/16 08:35:48;;;;;;;18.63;12.73;;;7.60;99.90;;;;;;5092628;28;20273;-55
2021/12/16 08:38:21;;;;;;;16.17;11.83;;;7.60;99.90;;;;;;5092504;28;20625;-54
2021/12/16 08:40:51;;;;;;;16.93;11.57;;;7.60;99.90;;;;;;5092684;28;20239;-54
2021/12/16 08:43:23;;;;;;;16.13;10.97;;;7.70;99.90;;;;;;5092404;28;20259;-54
2021/12/16 08:45:54;;;;;;;14.57;11.03;;;7.60;99.90;;;;;;5074467;28;20220;-54
2021/12/16 08:48:22;;;;;;;14.93;10.80;;;7.60;99.90;;;;;;5071749;28;20760;-54
2021/12/16 08:50:51;;;;;;;17.20;11.10;;;7.60;99.90;;;;;;5089706;28;20329;-54
2021/12/16 08:53:23;;;;;;;17.23;11.37;;;7.70;99.90;;;;;;5092062;28;20250;-55
2021/12/16 08:55:54;;;;;;;16.77;11.63;;;7.70;99.90;;;;;;5090916;28;20265;-54
2021/12/16 08:58:22;;;;;;;19.00;12.87;;;7.70;99.90;;;;;;5092065;28;20203;-54
2021/12/16 09:00:56;;;;;;;24.20;14.50;;;7.70;99.90;;;;;;5072523;28;20207;-54
2021/12/16 09:03:27;;;;;;;24.13;15.30;;;7.80;99.90;;;;;;5080178;28;20231;-55
2021/12/16 09:05:56;;;;;;;22.73;13.77;;;7.90;99.90;;;;;;5092164;28;20200;-54
2021/12/16 09:08:25;;;;;;;23.03;14.57;;;7.90;99.90;;;;;;5084764;28;20294;-54
2021/12/16 09:10:54;;;;;;;26.80;15.33;;;7.90;99.90;;;;;;5071381;28;20232;-55
2021/12/16 09:13:22;;;;;;;26.57;16.47;;;7.90;99.90;;;;;;5071821;28;20261;-55
2021/12/16 09:15:53;;;;;;;26.47;16.47;;;7.80;99.90;;;;;;5071731;28;20307;-55
2021/12/16 09:18:25;;;;;;;32.37;18.57;;;7.80;99.90;;;;;;5071640;28;20648;-54
2021/12/16 09:20:54;;;;;;;25.90;16.47;;;7.80;99.90;;;;;;5071711;28;20247;-54
2021/12/16 09:23:29;;;;;;;28.00;17.60;;;7.80;99.90;;;;;;5071877;28;20647;-55
2021/12/16 09:25:57;;;;;;;30.60;18.90;;;7.80;99.90;;;;;;5071563;28;20307;-54
2021/12/16 09:28:27;;;;;;;30.43;19.00;;;7.90;99.90;;;;;;5087588;28;20232;-54
2021/12/16 09:30:56;;;;;;;25.17;16.53;;;7.90;99.90;;;;;;5091681;28;20235;-54
2021/12/16 09:33:26;;;;;;;26.93;18.50;;;8.00;99.90;;;;;;5091713;28;20266;-54
2021/12/16 09:35:58;;;;;;;30.33;18.40;;;8.00;99.90;;;;;;5091121;28;20223;-55
2021/12/16 09:38:29;;;;;;;28.70;17.43;;;8.00;99.90;;;;;;5071677;28;20227;-55
2021/12/16 09:40:58;;;;;;;27.87;17.43;;;8.00;99.90;;;;;;5078812;28;20250;-54
2021/12/16 09:43:29;;;;;;;31.90;19.13;;;8.00;99.90;;;;;;5091386;28;20793;-54
2021/12/16 09:46:00;;;;;;;30.13;18.40;;;8.00;99.90;;;;;;5091040;28;20247;-54
2021/12/16 09:48:28;;;;;;;23.23;16.03;;;7.90;99.90;;;;;;5091642;28;20239;-53
2021/12/16 09:50:57;;;;;;;26.53;17.37;;;8.00;99.90;;;;;;5085288;28;20204;-52
2021/12/16 09:53:25;;;;;;;29.33;17.53;;;8.00;99.90;;;;;;5089675;28;20727;-54
2021/12/16 09:55:58;;;;;;;26.53;14.97;;;8.00;99.90;;;;;;5091001;28;20788;-55
2021/12/16 09:58:28;;;;;;;23.40;16.43;;;8.00;99.90;;;;;;5091065;28;20204;-55
2021/12/16 10:00:57;;;;;;;24.53;14.73;;;8.10;99.90;;;;;;5090291;28;20242;-55
2021/12/16 10:03:27;;;;;;;23.07;15.67;;;8.10;99.90;;;;;;5075004;28;20712;-55
2021/12/16 10:05:56;;;;;;;21.37;14.57;;;8.10;99.90;;;;;;5085677;28;20227;-55
2021/12/16 10:08:24;;;;;;;23.50;15.43;;;8.10;99.90;;;;;;5093736;28;20231;-55
2021/12/16 10:10:53;;;;;;;22.83;16.50;;;8.10;99.90;;;;;;5095176;28;20854;-55
2021/12/16 10:13:31;;;;;;;29.13;18.93;;;8.20;99.90;;;;;;5076784;28;20796;-54
2021/12/16 10:18:50;;;;;;;29.60;20.10;;;8.10;99.90;;;;;;5074692;28;20632;-54
2021/12/16 10:21:23;;;;;;;33.00;21.53;;;8.10;99.90;;;;;;5074742;28;20240;-54
2021/12/16 10:23:51;;;;;;;29.93;20.43;;;8.10;99.90;;;;;;5074627;28;20315;-54
2021/12/16 10:26:26;;;;;;;31.38;22.98;;;8.20;99.90;;;;;;5074195;28;20434;-52
2021/12/16 10:28:57;;;;;;;35.83;24.33;;;8.20;99.90;;;;;;5094795;28;20708;-54
2021/12/16 10:31:28;;;;;;;38.00;23.77;;;8.30;99.90;;;;;;5094908;28;20256;-54
2021/12/16 10:34:00;;;;;;;57.83;29.53;;;8.20;99.90;;;;;;5094785;28;20256;-54
2021/12/16 10:36:31;;;;;;;58.60;29.43;;;8.30;99.90;;;;;;5083060;28;20248;-55
2021/12/16 10:39:04;;;;;;;41.17;25.73;;;8.30;99.90;;;;;;5095217;28;20188;-54
2021/12/16 10:41:36;;;;;;;47.33;26.90;;;8.40;99.90;;;;;;5094356;28;20255;-56
2021/12/16 10:44:08;;;;;;;36.43;23.50;;;8.40;99.90;;;;;;5094760;28;20243;-53
2021/12/16 10:46:40;;;;;;;40.57;25.67;;;8.50;99.90;;;;;;5094605;28;20233;-54
2021/12/16 10:49:10;;;;;;;40.47;25.63;;;8.50;99.90;;;;;;5094049;28;20299;-52
2021/12/16 10:51:40;;;;;;;31.80;22.33;;;8.50;99.90;;;;;;5093792;28;20238;-53
2021/12/16 10:54:21;;;;;;;30.13;20.93;;;8.50;99.90;;;;;;5078165;28;20641;-53
2021/12/16 10:56:58;;;;;;;31.43;22.80;;;8.60;99.90;;;;;;5087413;28;20275;-52
2021/12/16 10:59:33;;;;;;;30.20;21.70;;;8.50;99.90;;;;;;5073508;28;20242;-52
2021/12/16 11:02:20;;;;;;;33.00;23.17;;;8.50;99.90;;;;;;5073422;28;20752;-53
2021/12/16 11:04:51;;;;;;;29.47;21.23;;;8.50;99.90;;;;;;5073675;28;20735;-54
2021/12/16 11:07:24;;;;;;;34.67;23.23;;;8.50;99.90;;;;;;5074222;28;20307;-54
2021/12/16 11:10:01;;;;;;;31.27;22.20;;;8.60;99.90;;;;;;5073744;28;20212;-52
2021/12/16 11:12:40;;;;;;;32.93;21.87;;;8.60;99.90;;;;;;5073695;28;20260;-55
2021/12/16 11:15:13;;;;;;;34.20;23.00;;;8.60;99.90;;;;;;5073066;28;20250;-55
2021/12/16 11:17:45;;;;;;;34.43;24.63;;;8.60;99.90;;;;;;5073832;28;20252;-54
2021/12/16 11:20:21;;;;;;;35.30;25.23;;;8.60;99.90;;;;;;5073474;28;20220;-57
2021/12/16 11:22:53;;;;;;;38.17;24.27;;;8.60;99.90;;;;;;5073747;28;20671;-55
2021/12/16 11:25:25;;;;;;;31.93;22.87;;;8.60;99.90;;;;;;5073203;28;20240;-54
2021/12/16 11:27:57;;;;;;;36.37;24.53;;;8.60;99.90;;;;;;5085442;28;20232;-55
2021/12/16 11:30:31;;;;;;;33.77;22.43;;;8.70;99.90;;;;;;5093228;28;20231;-55
2021/12/16 11:33:09;;;;;;;31.50;22.07;;;8.70;99.90;;;;;;5090487;28;20254;-55
2021/12/16 11:35:51;;;;;;;31.87;21.77;;;8.80;99.90;;;;;;5093138;28;20208;-55
2021/12/16 11:38:24;;;;;;;30.90;21.23;;;8.90;99.90;;;;;;5093873;28;20232;-54
2021/12/16 11:41:09;;;;;;;31.50;21.47;;;9.00;99.90;;;;;;5093067;28;20668;-54
2021/12/16 11:43:44;;;;;;;32.33;21.37;;;9.00;99.90;;;;;;5093729;28;20655;-55
2021/12/16 11:46:18;;;;;;;33.60;21.40;;;9.10;99.90;;;;;;5092649;28;20243;-55
2021/12/16 11:49:09;;;;;;;34.17;23.80;;;9.20;99.90;;;;;;5077408;28;20212;-55
2021/12/16 11:51:42;;;;;;;30.53;22.43;;;9.20;99.90;;;;;;5092358;28;20239;-54
2021/12/16 11:54:21;;;;;;;29.03;21.20;;;9.20;99.90;;;;;;5093329;28;20574;-55
2021/12/16 11:56:55;;;;;;;27.57;20.37;;;9.30;99.90;;;;;;5093215;28;20220;-55
2021/12/16 11:59:31;;;;;;;30.33;21.43;;;9.50;99.90;;;;;;5093087;28;20220;-55
2021/12/16 12:02:00;;;;;;;30.70;21.00;;;9.60;99.90;;;;;;5085112;28;20697;-54
2021/12/16 12:04:33;;;;;;;29.30;21.23;;;9.60;99.90;;;;;;5072822;28;20231;-55
2021/12/16 12:07:10;;;;;;;30.53;20.33;;;9.50;99.90;;;;;;5072932;28;20201;-55
2021/12/16 12:09:41;;;;;;;27.67;19.13;;;9.50;99.90;;;;;;5105676;28;20694;-56
2021/12/16 12:12:11;;;;;;;31.00;21.33;;;9.50;99.90;;;;;;5092149;28;20236;-53
2021/12/16 12:14:44;;;;;;;29.87;20.33;;;9.40;99.90;;;;;;5084205;28;20228;-55
2021/12/16 12:17:19;;;;;;;29.20;19.93;;;9.40;99.90;;;;;;5084424;28;20311;-54
2021/12/16 12:19:51;;;;;;;27.77;18.33;;;9.20;99.90;;;;;;5092441;28;20899;-62
2021/12/16 12:22:23;;;;;;;28.75;22.15;;;9.20;99.90;;;;;;5091465;28;20460;-53
2021/12/16 12:24:52;;;;;;;27.83;20.10;;;9.60;99.90;;;;;;5073115;28;20233;-52
2021/12/16 12:27:22;;;;;;;25.23;18.37;;;9.50;99.90;;;;;;5092506;28;20242;-52
2021/12/16 12:29:53;;;;;;;25.13;17.83;;;9.40;99.90;;;;;;5092848;28;20204;-52
2021/12/16 12:32:24;;;;;;;27.30;20.63;;;9.40;99.90;;;;;;5074624;28;20467;-52
2021/12/16 12:34:57;;;;;;;28.67;19.87;;;9.70;99.90;;;;;;5090690;28;20434;-53
2021/12/16 12:37:27;;;;;;;28.03;19.33;;;9.60;99.90;;;;;;5071926;28;20306;-52
2021/12/16 12:39:59;;;;;;;26.40;18.50;;;9.50;99.90;;;;;;5072243;28;20263;-54
2021/12/16 12:42:29;;;;;;;25.70;17.93;;;9.40;99.90;;;;;;5091999;28;20255;-54
2021/12/16 12:44:58;;;;;;;26.93;18.23;;;9.40;99.90;;;;;;5091961;28;20633;-55
2021/12/16 12:47:29;;;;;;;27.97;19.63;;;9.40;99.90;;;;;;5091866;28;20239;-52
2021/12/16 12:50:09;;;;;;;30.27;20.10;;;9.40;99.90;;;;;;5092281;28;20243;-51
2021/12/16 12:52:38;;;;;;;26.57;18.47;;;9.40;99.90;;;;;;5091322;28;20273;-54
2021/12/16 12:55:12;;;;;;;27.70;19.37;;;9.40;99.90;;;;;;5091833;28;20222;-54
2021/12/16 12:57:43;;;;;;;26.57;19.00;;;9.50;99.90;;;;;;5091889;28;20310;-54
2021/12/16 13:00:28;;;;;;;28.40;18.77;;;9.50;99.90;;;;;;5077925;28;20228;-55
2021/12/16 13:03:01;;;;;;;27.83;19.87;;;9.50;99.90;;;;;;5071842;28;20232;-54
2021/12/16 13:05:30;;;;;;;29.17;19.97;;;9.50;99.90;;;;;;5071690;28;20665;-53
2021/12/16 13:08:02;;;;;;;28.13;19.07;;;9.40;99.90;;;;;;5076073;28;20243;-54
2021/12/16 13:10:35;;;;;;;28.30;19.13;;;9.40;99.90;;;;;;5090918;28;20232;-54
2021/12/16 13:13:28;;;;;;;27.37;19.73;;;9.40;99.90;;;;;;5091778;28;20290;-54
2021/12/16 13:16:20;;;;;;;35.27;20.67;;;9.40;99.90;;;;;;5077550;28;20209;-54
2021/12/16 13:24:52;;;;;;;30.00;20.80;;;9.40;99.90;;;;;;5084482;28;20262;-54
2021/12/16 13:27:33;;;;;;;27.67;19.50;;;9.40;99.90;;;;;;5079812;28;20208;-53
2021/12/16 13:30:17;;;;;;;26.87;19.33;;;9.40;99.90;;;;;;5091542;28;20287;-55
2021/12/16 13:33:14;;;;;;;29.70;21.07;;;9.40;99.90;;;;;;5076333;28;20258;-55
2021/12/16 13:35:48;;;;;;;27.67;19.77;;;9.40;99.90;;;;;;5070999;28;20197;-54
2021/12/16 13:38:18;;;;;;;27.17;19.97;;;9.40;99.90;;;;;;5088467;28;20220;-54
2021/12/16 13:40:48;;;;;;;26.80;19.50;;;9.40;99.90;;;;;;5091147;28;20228;-54
2021/12/16 13:43:25;;;;;;;30.30;20.13;;;9.40;99.90;;;;;;5090903;28;20262;-55
2021/12/16 13:46:10;;;;;;;27.87;20.03;;;9.40;99.90;;;;;;5091046;28;20250;-55
2021/12/16 13:48:53;;;;;;;30.70;20.30;;;9.30;99.90;;;;;;5091285;28;20245;-54
2021/12/16 14:03:13;;;;;;;30.17;21.87;;;9.50;99.90;;;;;;5071686;28;20239;-54
2021/12/16 14:05:57;;;;;;;29.37;21.37;;;9.50;99.90;;;;;;5070956;28;20195;-54
2021/12/16 14:08:34;;;;;;;33.53;21.93;;;9.60;99.90;;;;;;5070542;28;20205;-55
2021/12/16 14:11:48;;;;;;;30.43;21.47;;;9.70;99.90;;;;;;5070611;28;20236;-53
2021/12/16 14:14:24;;;;;;;34.60;23.97;;;9.60;99.90;;;;;;5076282;28;20624;-53
2021/12/16 14:25:23;;;;;;;33.97;22.17;;;9.60;99.90;;;;;;5091006;28;20246;-55
2021/12/16 14:42:25;;;;;;;32.87;22.67;;;9.50;99.90;;;;;;5090981;28;20247;-55
2021/12/16 14:48:20;;;;;;;37.27;25.70;;;9.50;99.90;;;;;;5070527;28;20228;-54
2021/12/16 14:50:53;;;;;;;36.87;23.77;;;9.40;99.90;;;;;;5091651;28;20295;-55
2021/12/16 14:53:28;;;;;;;32.43;22.43;;;9.40;99.90;;;;;;5088891;28;20249;-55
2021/12/16 14:56:01;;;;;;;33.20;22.97;;;9.40;99.90;;;;;;5094185;28;20207;-54
2021/12/16 14:58:30;;;;;;;32.43;21.83;;;9.40;99.90;;;;;;5104234;28;20263;-54
2021/12/16 15:01:05;;;;;;;30.93;21.67;;;9.40;99.90;;;;;;5074055;28;20217;-53
2021/12/16 15:03:39;;;;;;;36.53;25.57;;;9.30;99.90;;;;;;5073561;28;20786;-54
2021/12/16 15:06:09;;;;;;;39.00;29.40;;;9.30;99.90;;;;;;5073955;28;20295;-54
2021/12/16 15:08:44;;;;;;;34.63;22.77;;;9.30;99.90;;;;;;5073496;28;20228;-54
2021/12/16 15:11:18;;;;;;;34.70;25.23;;;9.40;99.90;;;;;;5073889;28;20291;-54
2021/12/16 15:13:51;;;;;;;34.30;23.47;;;9.40;99.90;;;;;;5073553;28;20316;-53
2021/12/16 15:16:39;;;;;;;29.93;20.63;;;9.30;99.90;;;;;;5074011;28;20186;-55
2021/12/16 15:36:40;;;;;;;31.83;21.97;;;9.30;99.90;;;;;;5093876;28;20201;-53
2021/12/16 15:39:24;;;;;;;45.13;29.40;;;9.40;99.90;;;;;;5073673;28;20259;-54
2021/12/16 15:44:49;;;;;;;36.53;23.17;;;9.20;99.90;;;;;;5082194;28;20266;-53
2021/12/16 15:47:17;;;;;;;33.80;23.63;;;9.30;99.90;;;;;;5092784;28;20703;-54
2021/12/16 15:49:46;;;;;;;32.13;24.50;;;9.20;99.90;;;;;;5092646;28;20459;-54
2021/12/16 15:52:15;;;;;;;34.63;28.08;;;9.40;99.90;;;;;;5080309;28;20969;-54
2021/12/16 15:54:49;;;;;;;39.27;28.20;;;9.50;99.90;;;;;;5093349;28;20272;-53